TimeCDT,TemperatureF,Dew PointF,Humidity,Sea Level PressureIn,VisibilityMPH,Wind Direction,Wind SpeedMPH,Gust SpeedMPH,PrecipitationIn,Events,Conditions,WindDirDegrees,DateUTC
12:18 AM,59.0,57.2,94,29.94,10.0,NNW,5.8,-,N/A,,Overcast,330,2013-03-19 05:18:00
12:28 AM,59.0,59.0,100,29.93,10.0,Calm,Calm,-,N/A,,Overcast,360,2013-03-19 05:28:00
12:43 AM,59.0,57.2,94,29.92,10.0,Calm,Calm,-,N/A,,Overcast,0,2013-03-19 05:43:00
12:58 AM,59.0,57.2,94,29.94,10.0,South,3.5,-,N/A,,Overcast,180,2013-03-19 05:58:00
1:17 AM,59.0,57.2,94,29.93,10.0,SW,5.8,-,N/A,Rain,Light Rain,220,2013-03-19 06:17:00
1:29 AM,59.0,57.2,94,30.00,4.0,WSW,20.7,20.7,N/A,Rain-Thunderstorm,Light Thunderstorms and Rain,250,2013-03-19 06:29:00
1:34 AM,59.0,59.0,100,29.99,1.2,West,12.7,33.4,N/A,Rain-Thunderstorm,Heavy Thunderstorms and Rain,280,2013-03-19 06:34:00
1:39 AM,59.0,59.0,100,29.97,1.0,NW,10.4,33.4,N/A,Rain-Thunderstorm,Heavy Thunderstorms and Rain,310,2013-03-19 06:39:00
1:44 AM,59.0,59.0,100,29.94,2.5,NW,12.7,-,N/A,Rain-Thunderstorm,Heavy Thunderstorms and Rain,320,2013-03-19 06:44:00
1:49 AM,59.0,59.0,100,29.91,5.0,North,10.4,-,N/A,Rain-Thunderstorm,Thunderstorms and Rain,360,2013-03-19 06:49:00
1:53 AM,59.0,57.2,94,29.90,6.0,North,12.7,19.6,N/A,Rain-Thunderstorm,Rain,350,2013-03-19 06:53:00
1:58 AM,59.7,57.7,93,29.89,10.0,North,12.7,19.6,0.16,Rain,Light Rain,350,2013-03-19 06:58:00
2:00 AM,59.0,57.2,94,29.89,10.0,North,9.2,19.6,N/A,Rain-Thunderstorm,Light Thunderstorms and Rain,360,2013-03-19 07:00:00
2:09 AM,60.8,57.2,88,29.87,10.0,North,9.2,19.6,N/A,Thunderstorm,Thunderstorm,350,2013-03-19 07:09:00
2:17 AM,60.8,57.2,88,29.85,10.0,Variable,4.6,19.6,N/A,,Partly Cloudy,0,2013-03-19 07:17:00
2:58 AM,59.4,56.1,89,29.87,10.0,SSW,9.2,-,0.00,,Clear,200,2013-03-19 07:58:00
3:58 AM,57.6,56.3,96,29.94,10.0,West,8.1,-,N/A,,Scattered Clouds,260,2013-03-19 08:58:00
4:58 AM,58.3,56.3,93,29.95,10.0,West,5.8,-,N/A,,Overcast,270,2013-03-19 09:58:00
5:58 AM,58.3,56.7,94,29.97,10.0,NNW,8.1,-,N/A,,Mostly Cloudy,330,2013-03-19 10:58:00
6:48 AM,59.0,55.4,88,30.00,10.0,NNW,8.1,-,N/A,,Overcast,340,2013-03-19 11:48:00
6:58 AM,58.1,55.8,92,30.01,10.0,North,10.4,-,N/A,,Overcast,350,2013-03-19 11:58:00
7:28 AM,57.2,55.4,94,30.02,10.0,North,9.2,-,N/A,,Overcast,350,2013-03-19 12:28:00
7:38 AM,57.2,53.6,88,30.02,10.0,North,10.4,-,N/A,,Overcast,350,2013-03-19 12:38:00
7:58 AM,57.6,54.5,90,30.04,10.0,North,10.4,18.4,N/A,,Overcast,350,2013-03-19 12:58:00
8:58 AM,56.8,52.9,87,30.06,10.0,North,10.4,19.6,N/A,,Overcast,10,2013-03-19 13:58:00
9:58 AM,58.1,52.9,83,30.07,10.0,NE,8.1,-,N/A,,Overcast,50,2013-03-19 14:58:00
10:28 AM,59.0,53.6,82,30.06,10.0,NNE,6.9,-,N/A,,Mostly Cloudy,20,2013-03-19 15:28:00
10:58 AM,61.0,52.5,74,30.07,10.0,Variable,4.6,-,N/A,,Clear,0,2013-03-19 15:58:00
11:56 AM,61.0,52.5,74,30.07,10.0,Variable,4.6,-,N/A,,Clear,0,2013-03-19 16:56:00
12:58 PM,68.7,51.4,54,30.04,10.0,Variable,4.6,-,N/A,,Clear,0,2013-03-19 17:58:00
1:58 PM,72.7,51.8,48,30.01,10.0,NE,5.8,-,N/A,,Clear,50,2013-03-19 18:58:00
2:58 PM,73.4,48.0,41,29.99,10.0,Variable,2.3,-,N/A,,Clear,0,2013-03-19 19:58:00
3:58 PM,75.0,44.6,34,29.99,10.0,Variable,2.3,-,N/A,,Clear,0,2013-03-19 20:58:00
4:58 PM,75.6,42.6,31,29.97,10.0,North,8.1,-,N/A,,Clear,10,2013-03-19 21:58:00
5:58 PM,73.6,42.4,33,29.96,10.0,North,6.9,-,N/A,,Clear,10,2013-03-19 22:58:00
6:58 PM,68.7,40.3,35,29.99,10.0,North,5.8,-,N/A,,Clear,350,2013-03-19 23:58:00
7:58 PM,65.7,41.0,41,30.01,10.0,North,6.9,-,N/A,,Clear,360,2013-03-20 00:58:00
8:58 PM,61.3,40.8,47,30.01,10.0,North,9.2,-,N/A,,Clear,10,2013-03-20 01:58:00
9:58 PM,59.4,37.9,45,30.02,10.0,North,8.1,-,N/A,,Clear,10,2013-03-20 02:58:00
10:58 PM,59.7,34.0,38,30.04,10.0,NNE,9.2,-,N/A,,Clear,20,2013-03-20 03:58:00
11:58 PM,57.4,33.1,40,30.03,10.0,NNE,10.4,-,N/A,,Clear,20,2013-03-20 04:58:00